sensor_id;sensor_type;location;lat;lon;timestamp;pressure;altitude;pressure_sealevel;temperature;humidity
21838;BME280;11081;45.946;6.140;2023-01-27T00:00:51;94932.16;;;1.72;74.77
21838;BME280;11081;45.946;6.140;2023-01-27T00:03:20;94932.81;;;1.66;75.54
21838;BME280;11081;45.946;6.140;2023-01-27T00:05:48;94935.13;;;1.61;75.07
21838;BME280;11081;45.946;6.140;2023-01-27T00:08:17;94936.72;;;1.62;75.28
21838;BME280;11081;45.946;6.140;2023-01-27T00:10:45;94929.06;;;1.54;75.63
21838;BME280;11081;45.946;6.140;2023-01-27T00:13:33;94932.16;;;1.49;75.78
21838;BME280;11081;45.946;6.140;2023-01-27T00:16:01;94924.94;;;1.45;76.13
21838;BME280;11081;45.946;6.140;2023-01-27T00:18:30;94928.25;;;1.22;76.40
21838;BME280;11081;45.946;6.140;2023-01-27T00:20:58;94930.19;;;1.29;76.21
21838;BME280;11081;45.946;6.140;2023-01-27T00:23:43;94921.16;;;1.33;76.41
21838;BME280;11081;45.946;6.140;2023-01-27T00:26:29;94921.41;;;1.46;75.98
21838;BME280;11081;45.946;6.140;2023-01-27T00:28:57;94920.91;;;1.50;75.30
21838;BME280;11081;45.946;6.140;2023-01-27T00:31:26;94919.69;;;1.61;74.99
21838;BME280;11081;45.946;6.140;2023-01-27T00:34:12;94913.28;;;1.57;75.67
21838;BME280;11081;45.946;6.140;2023-01-27T00:36:41;94919.47;;;1.48;75.19
21838;BME280;11081;45.946;6.140;2023-01-27T00:39:11;94918.44;;;1.57;75.20
21838;BME280;11081;45.946;6.140;2023-01-27T00:41:42;94921.06;;;1.49;75.64
21838;BME280;11081;45.946;6.140;2023-01-27T00:44:10;94910.63;;;1.50;75.17
21838;BME280;11081;45.946;6.140;2023-01-27T00:46:41;94907.09;;;1.43;75.29
21838;BME280;11081;45.946;6.140;2023-01-27T00:49:09;94925.41;;;1.48;75.73
21838;BME280;11081;45.946;6.140;2023-01-27T00:51:39;94909.81;;;1.50;75.06
21838;BME280;11081;45.946;6.140;2023-01-27T00:54:07;94906.31;;;1.43;75.67
21838;BME280;11081;45.946;6.140;2023-01-27T00:56:36;94913.03;;;1.44;75.42
21838;BME280;11081;45.946;6.140;2023-01-27T00:59:05;94912.59;;;1.40;75.30
21838;BME280;11081;45.946;6.140;2023-01-27T01:01:33;94903.00;;;1.57;74.68
21838;BME280;11081;45.946;6.140;2023-01-27T01:04:03;94905.84;;;1.62;74.96
21838;BME280;11081;45.946;6.140;2023-01-27T01:06:31;94898.78;;;1.64;74.36
21838;BME280;11081;45.946;6.140;2023-01-27T01:08:59;94908.75;;;1.67;75.13
21838;BME280;11081;45.946;6.140;2023-01-27T01:11:27;94911.94;;;1.69;74.53
21838;BME280;11081;45.946;6.140;2023-01-27T01:13:55;94910.00;;;1.71;74.62
21838;BME280;11081;45.946;6.140;2023-01-27T01:16:24;94903.91;;;1.64;74.60
21838;BME280;11081;45.946;6.140;2023-01-27T01:18:52;94906.78;;;1.69;74.71
21838;BME280;11081;45.946;6.140;2023-01-27T01:21:22;94915.13;;;1.71;74.38
21838;BME280;11081;45.946;6.140;2023-01-27T01:23:50;94911.34;;;1.59;73.98
21838;BME280;11081;45.946;6.140;2023-01-27T01:26:18;94909.84;;;1.42;74.50
21838;BME280;11081;45.946;6.140;2023-01-27T01:28:46;94912.13;;;1.37;74.65
21838;BME280;11081;45.946;6.140;2023-01-27T01:31:16;94910.78;;;1.49;74.16
21838;BME280;11081;45.946;6.140;2023-01-27T01:33:45;94907.88;;;1.52;73.89
21838;BME280;11081;45.946;6.140;2023-01-27T01:36:15;94912.03;;;1.53;74.75
21838;BME280;11081;45.946;6.140;2023-01-27T01:38:45;94907.47;;;1.63;73.99
21838;BME280;11081;45.946;6.140;2023-01-27T01:41:17;94906.19;;;1.59;73.74
21838;BME280;11081;45.946;6.140;2023-01-27T01:43:45;94903.00;;;1.57;73.63
21838;BME280;11081;45.946;6.140;2023-01-27T01:46:14;94901.22;;;1.58;74.26
21838;BME280;11081;45.946;6.140;2023-01-27T01:48:45;94896.81;;;1.43;74.18
21838;BME280;11081;45.946;6.140;2023-01-27T01:51:17;94901.28;;;1.27;74.71
21838;BME280;11081;45.946;6.140;2023-01-27T01:53:51;94899.09;;;1.38;74.80
21838;BME280;11081;45.946;6.140;2023-01-27T01:56:23;94892.53;;;1.36;75.16
21838;BME280;11081;45.946;6.140;2023-01-27T01:58:54;94893.97;;;1.38;74.71
21838;BME280;11081;45.946;6.140;2023-01-27T02:01:24;94890.53;;;1.23;75.14
21838;BME280;11081;45.946;6.140;2023-01-27T02:03:55;94885.38;;;1.23;75.00
21838;BME280;11081;45.946;6.140;2023-01-27T02:06:25;94880.38;;;1.30;74.76
21838;BME280;11081;45.946;6.140;2023-01-27T02:08:58;94878.38;;;1.40;74.51
21838;BME280;11081;45.946;6.140;2023-01-27T02:11:27;94883.78;;;1.45;74.19
21838;BME280;11081;45.946;6.140;2023-01-27T02:13:59;94879.41;;;1.31;74.62
21838;BME280;11081;45.946;6.140;2023-01-27T02:16:27;94876.66;;;1.32;74.86
21838;BME280;11081;45.946;6.140;2023-01-27T02:18:57;94868.38;;;1.45;73.98
21838;BME280;11081;45.946;6.140;2023-01-27T02:21:25;94873.81;;;1.50;74.08
21838;BME280;11081;45.946;6.140;2023-01-27T02:23:57;94870.22;;;1.59;74.30
21838;BME280;11081;45.946;6.140;2023-01-27T02:26:30;94873.75;;;1.58;73.59
21838;BME280;11081;45.946;6.140;2023-01-27T02:29:04;94868.72;;;1.42;74.30
21838;BME280;11081;45.946;6.140;2023-01-27T02:31:33;94870.44;;;1.27;74.60
21838;BME280;11081;45.946;6.140;2023-01-27T02:34:04;94856.28;;;1.31;74.25
21838;BME280;11081;45.946;6.140;2023-01-27T02:36:37;94861.97;;;1.41;74.74
21838;BME280;11081;45.946;6.140;2023-01-27T02:39:07;94859.72;;;1.46;73.78
21838;BME280;11081;45.946;6.140;2023-01-27T02:41:41;94859.03;;;1.52;73.72
21838;BME280;11081;45.946;6.140;2023-01-27T02:44:10;94860.97;;;1.50;74.41
21838;BME280;11081;45.946;6.140;2023-01-27T02:46:38;94863.81;;;1.55;74.39
21838;BME280;11081;45.946;6.140;2023-01-27T02:49:07;94853.59;;;1.47;73.90
21838;BME280;11081;45.946;6.140;2023-01-27T02:51:35;94856.28;;;1.31;74.52
21838;BME280;11081;45.946;6.140;2023-01-27T02:54:04;94847.94;;;1.29;74.40
21838;BME280;11081;45.946;6.140;2023-01-27T02:56:32;94857.06;;;1.31;74.53
21838;BME280;11081;45.946;6.140;2023-01-27T02:59:02;94855.34;;;1.23;74.41
21838;BME280;11081;45.946;6.140;2023-01-27T03:01:35;94856.63;;;1.28;74.93
21838;BME280;11081;45.946;6.140;2023-01-27T03:04:03;94859.22;;;1.19;75.10
21838;BME280;11081;45.946;6.140;2023-01-27T03:06:32;94855.47;;;1.30;74.89
21838;BME280;11081;45.946;6.140;2023-01-27T03:09:01;94853.00;;;1.37;74.49
21838;BME280;11081;45.946;6.140;2023-01-27T03:11:29;94855.81;;;1.50;74.18
21838;BME280;11081;45.946;6.140;2023-01-27T03:14:16;94850.34;;;1.53;74.03
21838;BME280;11081;45.946;6.140;2023-01-27T03:16:46;94853.88;;;1.52;74.03
21838;BME280;11081;45.946;6.140;2023-01-27T03:19:32;94853.53;;;1.55;74.10
21838;BME280;11081;45.946;6.140;2023-01-27T03:22:02;94848.38;;;1.55;73.81
21838;BME280;11081;45.946;6.140;2023-01-27T03:24:32;94843.78;;;1.65;73.42
21838;BME280;11081;45.946;6.140;2023-01-27T03:27:04;94838.66;;;1.65;73.28
21838;BME280;11081;45.946;6.140;2023-01-27T03:29:53;94848.75;;;1.52;73.66
21838;BME280;11081;45.946;6.140;2023-01-27T03:32:23;94845.19;;;1.53;74.14
21838;BME280;11081;45.946;6.140;2023-01-27T03:35:11;94842.44;;;1.55;73.77
21838;BME280;11081;45.946;6.140;2023-01-27T03:37:41;94841.31;;;1.57;73.95
21838;BME280;11081;45.946;6.140;2023-01-27T03:40:27;94846.09;;;1.60;74.53
21838;BME280;11081;45.946;6.140;2023-01-27T03:43:13;94837.41;;;1.61;74.37
21838;BME280;11081;45.946;6.140;2023-01-27T03:46:00;94839.00;;;1.62;74.44
21838;BME280;11081;45.946;6.140;2023-01-27T03:48:49;94842.53;;;1.61;74.57
21838;BME280;11081;45.946;6.140;2023-01-27T03:51:19;94846.00;;;1.53;74.38
21838;BME280;11081;45.946;6.140;2023-01-27T03:53:47;94841.38;;;1.49;74.47
21838;BME280;11081;45.946;6.140;2023-01-27T03:56:17;94835.94;;;1.44;74.32
21838;BME280;11081;45.946;6.140;2023-01-27T03:58:47;94836.41;;;1.47;74.64
21838;BME280;11081;45.946;6.140;2023-01-27T04:01:19;94828.28;;;1.36;74.79
21838;BME280;11081;45.946;6.140;2023-01-27T04:03:48;94834.41;;;1.35;74.78
21838;BME280;11081;45.946;6.140;2023-01-27T04:06:37;94843.72;;;1.36;74.84
21838;BME280;11081;45.946;6.140;2023-01-27T04:09:30;94838.66;;;1.42;74.18
21838;BME280;11081;45.946;6.140;2023-01-27T04:12:00;94843.16;;;1.26;75.26
21838;BME280;11081;45.946;6.140;2023-01-27T04:14:29;94837.53;;;1.22;74.98
21838;BME280;11081;45.946;6.140;2023-01-27T04:17:01;94836.06;;;1.28;75.13
21838;BME280;11081;45.946;6.140;2023-01-27T04:19:29;94843.16;;;1.26;75.34
21838;BME280;11081;45.946;6.140;2023-01-27T04:21:59;94843.72;;;1.36;74.57
21838;BME280;11081;45.946;6.140;2023-01-27T04:24:28;94841.75;;;1.38;74.70
21838;BME280;11081;45.946;6.140;2023-01-27T04:26:57;94843.34;;;1.39;74.87
21838;BME280;11081;45.946;6.140;2023-01-27T04:29:27;94843.72;;;1.36;75.00
21838;BME280;11081;45.946;6.140;2023-01-27T04:31:56;94836.28;;;1.41;74.77
21838;BME280;11081;45.946;6.140;2023-01-27T04:34:26;94832.72;;;1.42;74.54
21838;BME280;11081;45.946;6.140;2023-01-27T04:36:55;94830.50;;;1.39;74.83
21838;BME280;11081;45.946;6.140;2023-01-27T04:39:23;94827.03;;;1.32;75.18
21838;BME280;11081;45.946;6.140;2023-01-27T04:41:52;94827.38;;;1.29;75.29
21838;BME280;11081;45.946;6.140;2023-01-27T04:44:20;94837.66;;;1.29;75.36
21838;BME280;11081;45.946;6.140;2023-01-27T04:46:48;94830.56;;;1.31;74.90
21838;BME280;11081;45.946;6.140;2023-01-27T04:49:17;94829.16;;;1.28;74.96
21838;BME280;11081;45.946;6.140;2023-01-27T04:51:46;94832.88;;;1.26;75.32
21838;BME280;11081;45.946;6.140;2023-01-27T04:54:15;94826.41;;;1.30;74.27
21838;BME280;11081;45.946;6.140;2023-01-27T04:56:54;94836.78;;;1.13;74.78
21838;BME280;11081;45.946;6.140;2023-01-27T04:59:22;94828.50;;;1.03;75.52
21838;BME280;11081;45.946;6.140;2023-01-27T05:01:50;94833.69;;;0.95;75.82
21838;BME280;11081;45.946;6.140;2023-01-27T05:04:18;94835.91;;;0.98;75.86
21838;BME280;11081;45.946;6.140;2023-01-27T05:06:48;94835.00;;;0.91;75.08
21838;BME280;11081;45.946;6.140;2023-01-27T05:09:16;94839.34;;;0.90;76.00
21838;BME280;11081;45.946;6.140;2023-01-27T05:11:44;94836.31;;;0.79;76.08
21838;BME280;11081;45.946;6.140;2023-01-27T05:14:12;94841.13;;;0.82;75.88
21838;BME280;11081;45.946;6.140;2023-01-27T05:16:40;94826.94;;;0.94;75.67
21838;BME280;11081;45.946;6.140;2023-01-27T05:19:08;94839.41;;;1.05;75.37
21838;BME280;11081;45.946;6.140;2023-01-27T05:21:36;94837.06;;;1.18;74.21
21838;BME280;11081;45.946;6.140;2023-01-27T05:24:06;94832.38;;;0.99;74.53
21838;BME280;11081;45.946;6.140;2023-01-27T05:26:34;94831.47;;;0.92;74.67
21838;BME280;11081;45.946;6.140;2023-01-27T05:29:02;94828.19;;;0.98;75.25
21838;BME280;11081;45.946;6.140;2023-01-27T05:31:30;94829.50;;;0.94;75.13
21838;BME280;11081;45.946;6.140;2023-01-27T05:34:00;94831.00;;;0.88;74.26
21838;BME280;11081;45.946;6.140;2023-01-27T05:36:29;94838.25;;;0.85;74.67
21838;BME280;11081;45.946;6.140;2023-01-27T05:38:58;94823.75;;;0.92;74.43
21838;BME280;11081;45.946;6.140;2023-01-27T05:41:29;94822.78;;;0.93;73.39
21838;BME280;11081;45.946;6.140;2023-01-27T05:43:57;94824.63;;;1.07;72.91
21838;BME280;11081;45.946;6.140;2023-01-27T05:46:27;94821.53;;;1.12;73.36
21838;BME280;11081;45.946;6.140;2023-01-27T05:48:58;94828.38;;;1.19;73.72
21838;BME280;11081;45.946;6.140;2023-01-27T05:51:29;94828.16;;;1.06;73.25
21838;BME280;11081;45.946;6.140;2023-01-27T05:53:57;94832.97;;;1.09;73.48
21838;BME280;11081;45.946;6.140;2023-01-27T05:56:27;94829.09;;;1.13;73.80
21838;BME280;11081;45.946;6.140;2023-01-27T05:58:57;94830.56;;;1.08;73.61
21838;BME280;11081;45.946;6.140;2023-01-27T06:01:26;94831.81;;;1.12;73.38
21838;BME280;11081;45.946;6.140;2023-01-27T06:03:55;94834.56;;;1.10;73.14
21838;BME280;11081;45.946;6.140;2023-01-27T06:06:24;94833.41;;;0.90;73.92
21838;BME280;11081;45.946;6.140;2023-01-27T06:08:53;94831.53;;;0.76;73.88
21838;BME280;11081;45.946;6.140;2023-01-27T06:11:21;94837.84;;;0.96;73.69
21838;BME280;11081;45.946;6.140;2023-01-27T06:13:52;94823.66;;;1.08;73.70
21838;BME280;11081;45.946;6.140;2023-01-27T06:16:21;94823.25;;;1.19;72.78
21838;BME280;11081;45.946;6.140;2023-01-27T06:18:50;94835.44;;;1.26;73.35
21838;BME280;11081;45.946;6.140;2023-01-27T06:21:18;94832.63;;;1.12;72.76
21838;BME280;11081;45.946;6.140;2023-01-27T06:23:47;94832.97;;;1.09;73.39
21838;BME280;11081;45.946;6.140;2023-01-27T06:26:17;94826.44;;;1.21;73.14
21838;BME280;11081;45.946;6.140;2023-01-27T06:28:46;94830.28;;;1.26;73.13
21838;BME280;11081;45.946;6.140;2023-01-27T06:31:19;94834.69;;;1.17;72.93
21838;BME280;11081;45.946;6.140;2023-01-27T06:33:48;94832.56;;;1.20;73.74
21838;BME280;11081;45.946;6.140;2023-01-27T06:36:17;94827.94;;;1.16;73.49
21838;BME280;11081;45.946;6.140;2023-01-27T06:38:46;94835.81;;;1.14;72.99
21838;BME280;11081;45.946;6.140;2023-01-27T06:41:14;94831.25;;;1.25;72.36
21838;BME280;11081;45.946;6.140;2023-01-27T06:43:42;94828.88;;;1.46;72.48
21838;BME280;11081;45.946;6.140;2023-01-27T06:46:10;94834.22;;;1.59;71.54
21838;BME280;11081;45.946;6.140;2023-01-27T06:48:40;94834.91;;;1.53;71.47
21838;BME280;11081;45.946;6.140;2023-01-27T06:51:08;94837.75;;;1.58;71.17
21838;BME280;11081;45.946;6.140;2023-01-27T06:53:36;94839.34;;;1.59;71.42
21838;BME280;11081;45.946;6.140;2023-01-27T06:56:05;94843.25;;;1.55;70.97
21838;BME280;11081;45.946;6.140;2023-01-27T06:58:33;94845.88;;;1.47;71.20
21838;BME280;11081;45.946;6.140;2023-01-27T07:01:03;94838.81;;;1.49;71.16
21838;BME280;11081;45.946;6.140;2023-01-27T07:03:32;94839.69;;;1.56;71.01
21838;BME280;11081;45.946;6.140;2023-01-27T07:06:05;94842.00;;;1.51;70.72
21838;BME280;11081;45.946;6.140;2023-01-27T07:08:33;94843.59;;;1.52;70.86
21838;BME280;11081;45.946;6.140;2023-01-27T07:11:02;94846.50;;;1.49;70.99
21838;BME280;11081;45.946;6.140;2023-01-27T07:13:31;94851.59;;;1.57;71.36
21838;BME280;11081;45.946;6.140;2023-01-27T07:15:59;94845.53;;;1.50;71.21
21838;BME280;11081;45.946;6.140;2023-01-27T07:18:27;94843.72;;;1.36;70.73
21838;BME280;11081;45.946;6.140;2023-01-27T07:20:55;94850.44;;;1.37;71.08
21838;BME280;11081;45.946;6.140;2023-01-27T07:23:24;94851.69;;;1.41;70.52
21838;BME280;11081;45.946;6.140;2023-01-27T07:25:52;94848.84;;;1.36;70.54
21838;BME280;11081;45.946;6.140;2023-01-27T07:28:21;94851.69;;;1.41;71.37
21838;BME280;11081;45.946;6.140;2023-01-27T07:30:49;94857.53;;;1.35;71.02
21838;BME280;11081;45.946;6.140;2023-01-27T07:33:17;94858.78;;;1.39;70.40
21838;BME280;11081;45.946;6.140;2023-01-27T07:35:47;94861.13;;;1.48;69.98
21838;BME280;11081;45.946;6.140;2023-01-27T07:38:16;94851.84;;;1.47;70.74
21838;BME280;11081;45.946;6.140;2023-01-27T07:40:45;94853.13;;;1.43;70.47
21838;BME280;11081;45.946;6.140;2023-01-27T07:43:13;94856.50;;;1.44;70.35
21838;BME280;11081;45.946;6.140;2023-01-27T07:45:42;94855.59;;;1.37;70.76
21838;BME280;11081;45.946;6.140;2023-01-27T07:48:14;94853.09;;;1.29;70.66
21838;BME280;11081;45.946;6.140;2023-01-27T07:50:42;94858.41;;;1.27;70.98
21838;BME280;11081;45.946;6.140;2023-01-27T07:53:10;94856.03;;;1.17;70.97
21838;BME280;11081;45.946;6.140;2023-01-27T07:55:39;94855.75;;;1.35;70.73
21838;BME280;11081;45.946;6.140;2023-01-27T07:58:08;94854.09;;;1.42;69.88
21838;BME280;11081;45.946;6.140;2023-01-27T08:00:36;94850.84;;;1.48;70.55
21838;BME280;11081;45.946;6.140;2023-01-27T08:03:05;94852.28;;;1.51;70.45
21838;BME280;11081;45.946;6.140;2023-01-27T08:05:33;94855.25;;;1.40;70.92
21838;BME280;11081;45.946;6.140;2023-01-27T08:08:04;94861.34;;;1.39;70.72
21838;BME280;11081;45.946;6.140;2023-01-27T08:10:32;94861.75;;;1.28;70.67
21838;BME280;11081;45.946;6.140;2023-01-27T08:13:00;94857.06;;;1.31;70.58
21838;BME280;11081;45.946;6.140;2023-01-27T08:15:29;94853.63;;;1.39;70.59
21838;BME280;11081;45.946;6.140;2023-01-27T08:17:58;94858.44;;;1.42;70.29
21838;BME280;11081;45.946;6.140;2023-01-27T08:20:28;94855.50;;;1.45;70.57
21838;BME280;11081;45.946;6.140;2023-01-27T08:22:56;94861.63;;;1.44;71.00
21838;BME280;11081;45.946;6.140;2023-01-27T08:25:24;94864.50;;;1.49;70.29
21838;BME280;11081;45.946;6.140;2023-01-27T08:27:53;94865.53;;;1.40;70.67
21838;BME280;11081;45.946;6.140;2023-01-27T08:30:22;94870.66;;;1.40;70.85
21838;BME280;11081;45.946;6.140;2023-01-27T08:32:52;94866.22;;;1.34;70.99
21838;BME280;11081;45.946;6.140;2023-01-27T08:35:20;94872.03;;;1.28;70.80
21838;BME280;11081;45.946;6.140;2023-01-27T08:37:48;94869.75;;;1.33;71.10
21838;BME280;11081;45.946;6.140;2023-01-27T08:40:17;94878.78;;;1.29;70.59
21838;BME280;11081;45.946;6.140;2023-01-27T08:42:45;94880.31;;;1.38;70.52
21838;BME280;11081;45.946;6.140;2023-01-27T08:45:13;94879.00;;;1.42;70.18
21838;BME280;11081;45.946;6.140;2023-01-27T08:47:41;94874.84;;;1.41;70.20
21838;BME280;11081;45.946;6.140;2023-01-27T08:50:11;94884.28;;;1.48;69.86
21838;BME280;11081;45.946;6.140;2023-01-27T08:52:39;94878.25;;;1.56;69.96
21838;BME280;11081;45.946;6.140;2023-01-27T08:55:08;94871.59;;;1.47;70.26
21838;BME280;11081;45.946;6.140;2023-01-27T08:57:36;94877.84;;;1.44;70.01
21838;BME280;11081;45.946;6.140;2023-01-27T09:00:06;94875.69;;;1.33;70.35
21838;BME280;11081;45.946;6.140;2023-01-27T09:02:34;94875.13;;;1.46;70.20
21838;BME280;11081;45.946;6.140;2023-01-27T09:05:02;94877.63;;;1.54;69.65
21838;BME280;11081;45.946;6.140;2023-01-27T09:07:32;94885.63;;;1.59;69.08
21838;BME280;11081;45.946;6.140;2023-01-27T09:10:01;94883.75;;;1.53;69.31
21838;BME280;11081;45.946;6.140;2023-01-27T09:12:41;94882.09;;;1.60;69.48
21838;BME280;11081;45.946;6.140;2023-01-27T09:15:10;94882.78;;;1.54;69.21
21838;BME280;11081;45.946;6.140;2023-01-27T09:17:39;94892.53;;;1.59;69.94
21838;BME280;11081;45.946;6.140;2023-01-27T09:20:08;94888.47;;;1.64;69.70
21838;BME280;11081;45.946;6.140;2023-01-27T09:22:39;94888.84;;;1.61;70.19
21838;BME280;11081;45.946;6.140;2023-01-27T09:25:11;94885.41;;;1.69;69.46
21838;BME280;11081;45.946;6.140;2023-01-27T09:27:40;94889.41;;;1.71;69.04
21838;BME280;11081;45.946;6.140;2023-01-27T09:30:10;94880.66;;;1.80;68.95
21838;BME280;11081;45.946;6.140;2023-01-27T09:32:39;94886.22;;;1.69;68.61
21838;BME280;11081;45.946;6.140;2023-01-27T09:35:08;94890.22;;;1.72;69.01
21838;BME280;11081;45.946;6.140;2023-01-27T09:37:41;94887.47;;;1.73;68.74
21838;BME280;11081;45.946;6.140;2023-01-27T09:40:19;94887.59;;;1.57;69.36
21838;BME280;11081;45.946;6.140;2023-01-27T09:43:09;94879.78;;;1.65;68.93
21838;BME280;11081;45.946;6.140;2023-01-27T09:46:03;94895.91;;;1.59;69.02
21838;BME280;11081;45.946;6.140;2023-01-27T09:48:46;94893.63;;;1.64;69.30
21838;BME280;11081;45.946;6.140;2023-01-27T09:51:22;94904.50;;;1.74;68.93
21838;BME280;11081;45.946;6.140;2023-01-27T09:54:07;94899.41;;;1.66;68.53
21838;BME280;11081;45.946;6.140;2023-01-27T09:56:42;94899.47;;;1.58;68.91
21838;BME280;11081;45.946;6.140;2023-01-27T09:59:34;94902.44;;;1.47;69.38
21838;BME280;11081;45.946;6.140;2023-01-27T10:02:14;94904.25;;;1.61;69.85
21838;BME280;11081;45.946;6.140;2023-01-27T10:05:11;94906.44;;;1.72;68.64
21838;BME280;11081;45.946;6.140;2023-01-27T10:07:53;94907.09;;;1.43;69.32
21838;BME280;11081;45.946;6.140;2023-01-27T10:10:40;94899.91;;;1.39;70.27
21838;BME280;11081;45.946;6.140;2023-01-27T10:13:22;94897.31;;;1.47;69.90
21838;BME280;11081;45.946;6.140;2023-01-27T10:16:03;94904.50;;;1.51;69.83
21838;BME280;11081;45.946;6.140;2023-01-27T10:18:51;94906.19;;;1.36;70.10
21838;BME280;11081;45.946;6.140;2023-01-27T10:21:27;94903.00;;;1.57;70.10
21838;BME280;11081;45.946;6.140;2023-01-27T10:24:03;94910.00;;;1.48;69.53
21838;BME280;11081;45.946;6.140;2023-01-27T10:26:40;94910.19;;;1.39;69.50
21838;BME280;11081;45.946;6.140;2023-01-27T10:29:09;94916.59;;;1.43;69.93
21838;BME280;11081;45.946;6.140;2023-01-27T10:31:42;94907.75;;;1.14;70.21
21838;BME280;11081;45.946;6.140;2023-01-27T10:34:21;94907.69;;;1.31;70.57
21838;BME280;11081;45.946;6.140;2023-01-27T10:36:58;94903.69;;;1.51;69.95
21838;BME280;11081;45.946;6.140;2023-01-27T10:39:36;94907.41;;;1.71;69.40
21838;BME280;11081;45.946;6.140;2023-01-27T10:42:19;94909.91;;;1.79;69.17
21838;BME280;11081;45.946;6.140;2023-01-27T10:45:04;94916.94;;;1.86;69.02
21838;BME280;11081;45.946;6.140;2023-01-27T10:47:49;94901.97;;;1.89;68.35
21838;BME280;11081;45.946;6.140;2023-01-27T10:50:26;94911.47;;;1.89;68.17
21838;BME280;11081;45.946;6.140;2023-01-27T10:52:59;94911.88;;;1.77;68.94
21838;BME280;11081;45.946;6.140;2023-01-27T10:55:35;94903.81;;;1.80;68.19
21838;BME280;11081;45.946;6.140;2023-01-27T10:58:11;94896.34;;;1.86;68.33
21838;BME280;11081;45.946;6.140;2023-01-27T11:00:44;94910.16;;;1.93;67.79
21838;BME280;11081;45.946;6.140;2023-01-27T11:03:35;94907.22;;;1.96;68.02
21838;BME280;11081;45.946;6.140;2023-01-27T11:06:11;94904.84;;;1.71;67.97
21838;BME280;11081;45.946;6.140;2023-01-27T11:08:44;94905.13;;;1.76;67.86
21838;BME280;11081;45.946;6.140;2023-01-27T11:11:14;94903.59;;;1.67;67.95
21838;BME280;11081;45.946;6.140;2023-01-27T11:14:11;94902.44;;;1.47;68.15
21838;BME280;11081;45.946;6.140;2023-01-27T11:16:44;94896.25;;;1.56;68.61
21838;BME280;11081;45.946;6.140;2023-01-27T11:19:20;94898.78;;;1.64;68.10
21838;BME280;11081;45.946;6.140;2023-01-27T11:21:52;94898.09;;;1.70;68.15
21838;BME280;11081;45.946;6.140;2023-01-27T11:24:40;94894.84;;;1.76;68.14
21838;BME280;11081;45.946;6.140;2023-01-27T11:27:16;94890.53;;;1.92;67.66
21838;BME280;11081;45.946;6.140;2023-01-27T11:29:52;94893.13;;;1.92;66.77
21838;BME280;11081;45.946;6.140;2023-01-27T11:32:30;94891.47;;;1.76;67.72
21838;BME280;11081;45.946;6.140;2023-01-27T11:35:03;94880.50;;;1.59;67.75
21838;BME280;11081;45.946;6.140;2023-01-27T11:37:34;94880.50;;;1.59;68.04
21838;BME280;11081;45.946;6.140;2023-01-27T11:40:13;94887.13;;;1.76;67.68
21838;BME280;11081;45.946;6.140;2023-01-27T11:42:42;94875.78;;;1.86;67.02
21838;BME280;11081;45.946;6.140;2023-01-27T11:45:15;94884.16;;;1.88;67.07
21838;BME280;11081;45.946;6.140;2023-01-27T11:47:45;94883.19;;;2.03;67.88
21838;BME280;11081;45.946;6.140;2023-01-27T11:50:15;94877.25;;;2.03;67.04
21838;BME280;11081;45.946;6.140;2023-01-27T11:52:46;94875.50;;;2.18;67.21
21838;BME280;11081;45.946;6.140;2023-01-27T11:55:19;94878.47;;;2.07;66.79
21838;BME280;11081;45.946;6.140;2023-01-27T11:57:50;94865.97;;;1.89;67.70
21838;BME280;11081;45.946;6.140;2023-01-27T12:00:23;94871.19;;;1.96;67.50
21838;BME280;11081;45.946;6.140;2023-01-27T12:02:59;94868.81;;;1.94;67.15
21838;BME280;11081;45.946;6.140;2023-01-27T12:05:30;94871.28;;;1.88;68.05
21838;BME280;11081;45.946;6.140;2023-01-27T12:08:01;94866.41;;;1.93;67.28
21838;BME280;11081;45.946;6.140;2023-01-27T12:10:31;94871.06;;;2.12;66.73
21838;BME280;11081;45.946;6.140;2023-01-27T12:13:06;94868.84;;;2.24;66.70
21838;BME280;11081;45.946;6.140;2023-01-27T12:15:38;94858.47;;;2.17;66.68
21838;BME280;11081;45.946;6.140;2023-01-27T12:18:14;94856.25;;;2.14;66.39
21838;BME280;11081;45.946;6.140;2023-01-27T12:20:44;94861.81;;;2.03;66.45
21838;BME280;11081;45.946;6.140;2023-01-27T12:23:20;94867.75;;;2.03;65.99
21838;BME280;11081;45.946;6.140;2023-01-27T12:25:52;94856.69;;;2.18;66.16
21838;BME280;11081;45.946;6.140;2023-01-27T12:28:27;94859.69;;;2.21;65.54
21838;BME280;11081;45.946;6.140;2023-01-27T12:31:03;94855.63;;;2.12;65.90
21838;BME280;11081;45.946;6.140;2023-01-27T12:33:33;94849.19;;;2.08;66.79
21838;BME280;11081;45.946;6.140;2023-01-27T12:36:11;94853.66;;;2.14;65.70
21838;BME280;11081;45.946;6.140;2023-01-27T12:38:44;94848.16;;;2.17;66.10
21838;BME280;11081;45.946;6.140;2023-01-27T12:41:21;94851.00;;;2.22;66.08
21838;BME280;11081;45.946;6.140;2023-01-27T12:43:52;94856.34;;;2.35;65.31
21838;BME280;11081;45.946;6.140;2023-01-27T12:46:23;94851.56;;;2.32;65.76
21838;BME280;11081;45.946;6.140;2023-01-27T12:48:54;94854.19;;;2.24;66.10
21838;BME280;11081;45.946;6.140;2023-01-27T12:51:37;94856.50;;;2.19;65.33
21838;BME280;11081;45.946;6.140;2023-01-27T12:54:19;94858.53;;;2.24;65.48
21838;BME280;11081;45.946;6.140;2023-01-27T12:56:49;94851.09;;;2.29;65.39
21838;BME280;11081;45.946;6.140;2023-01-27T12:59:19;94854.75;;;2.34;65.62
21838;BME280;11081;45.946;6.140;2023-01-27T13:02:00;94858.66;;;2.30;65.93
21838;BME280;11081;45.946;6.140;2023-01-27T13:04:29;94859.00;;;2.27;66.38
21838;BME280;11081;45.946;6.140;2023-01-27T13:07:04;94849.97;;;2.31;66.13
21838;BME280;11081;45.946;6.140;2023-01-27T13:09:35;94853.94;;;2.34;66.11
21838;BME280;11081;45.946;6.140;2023-01-27T13:12:14;94850.66;;;2.25;66.04
21838;BME280;11081;45.946;6.140;2023-01-27T13:14:43;94850.47;;;2.12;66.66
21838;BME280;11081;45.946;6.140;2023-01-27T13:17:34;94861.28;;;2.22;65.86
21838;BME280;11081;45.946;6.140;2023-01-27T13:20:06;94852.84;;;2.28;66.90
21838;BME280;11081;45.946;6.140;2023-01-27T13:22:43;94851.91;;;2.29;66.55
21838;BME280;11081;45.946;6.140;2023-01-27T13:25:17;94857.50;;;2.33;66.29
21838;BME280;11081;45.946;6.140;2023-01-27T13:27:47;94855.78;;;2.25;65.75
21838;BME280;11081;45.946;6.140;2023-01-27T13:30:21;94864.31;;;2.11;66.81
21838;BME280;11081;45.946;6.140;2023-01-27T13:32:59;94868.19;;;2.07;66.57
21838;BME280;11081;45.946;6.140;2023-01-27T13:35:33;94865.69;;;1.99;67.07